YWBH weather

Wallabadah Airport
New South Wales, Australia

Public forecast

Using degrees Celsius for public forecast. Weather courtesy of forecast.io.

Closest aviation weather report (METAR) to Wallabadah Airport

Closest report is Tamworth Airport, 27.0 nm (50.0 km) N. Retrieved 2019/10/19 13:30 UTC (23 minutes ago):

YSTW 191330Z AUTO 21017KT 9999 // SCT064 19/03 Q1017 RF000/0000

Closest aviation forecast (TAF) to Wallabadah Airport

Closest forecast is Tamworth Airport, 27.0 nm (50.0 km) N. Retrieved 2019/10/19 12:36 UTC (1 hour ago):

TAF TAF YSTW 191113Z 1912/2006 21010KT 9999 -DU NSC FM191400 16007KT CAVOK FM200000 20010KT CAVOK PROB30 1912/1914 5000 BLDU